FranceFixed distance
Luchon Aneto Trail - L'Ultra Lat
5–6 Jul2025
Distance
85km
Finishers
247220 men27 women
Winning time
9:42:00h
Median pace
5.48km/h
Pace distribution
247 finishers · 4.35–8.76 km/h · mean 5.62
Every finisher ran the same 85 km course, so these paces are directly comparable.
Histogram of finisher pace. 247 finishers ranged from 4.35 to 8.76 kilometres per hour, with a mean of 5.62 and a median of 5.48. The busiest band is 5.0 to 5.5 kilometres per hour, with 68 finishers.
Results
Ranks 101–150 of 247
| Rank | Runner | Time | Pace | Cat. | Placing |
|---|---|---|---|---|---|
| 101 | *Toulouse | 15:03:20h | 5.65 | W40 | 6th F · 2nd W40 |
| 102 | Club Alpin Francais du... | 15:05:10h | 5.63 | M40 | 96th M · 21st M40 |
| 103 | *Dignac | 15:06:25h | 5.63 | M40 | 97th M · 22nd M40 |
| 104 | Running Ordizan Club | 15:06:27h | 5.63 | — | 98th M |
| 105 | Portet Athletic Club | 15:06:41h | 5.63 | M40 | 99th M · 23rd M40 |
| 106 | Aizkorri Mendi Elkartea | 15:07:17h | 5.62 | M50 | 100th M · 2nd M50 |
| 107 | *Madrid | 15:07:36h | 5.62 | M23 | 101st M · 35th M23 |
| 108 | *Saint Loup Cammas | 15:08:03h | 5.62 | M40 | 102nd M · 24th M40 |
| 109 | Aubiet | 15:08:04h | 5.62 | M23 | 103rd M · 36th M23 |
| 110 | LA Britestole Trail | 15:08:47h | 5.61 | M40 | 104th M · 25th M40 |
| 111 | *Pechbonnieu | 15:09:43h | 5.61 | M45 | 105th M · 11th M45 |
| 112 | AB Trail | 15:10:08h | 5.60 | M45 | 106th M · 12th M45 |
| 113 | *La Madeleine | 15:10:29h | 5.60 | W45 | 7th F · 1st W45 |
| 114 | *Castres | 15:10:52h | 5.60 | M35 | 107th M · 22nd M35 |
| 114 | *Artigueloutan | 15:10:52h | 5.60 | M40 | 107th M · 26th M40 |
| 116 | Valeo | 15:11:26h | 5.60 | M35 | 109th M · 23rd M35 |
| 117 | AR SUD LAC | 15:14:06h | 5.58 | M60 | 110th M · 3rd M60 |
| 118 | Apéro Club Miossais | 15:14:23h | 5.58 | M23 | 111th M · 37th M23 |
| 119 | *Saint André Lez Lille | 15:14:43h | 5.58 | — | 112th M |
| 120 | SAM | 15:15:55h | 5.57 | W23 | 8th F · 4th W23 |
| 121 | les Galopins du Fezensac | 15:22:34h | 5.53 | M45 | 113th M · 13th M45 |
| 122 | Tournedrune | 15:29:19h | 5.49 | M45 | 114th M · 14th M45 |
| 123 | Ouirun la Rochelle - D... | 15:29:20h | 5.49 | M35 | 115th M · 24th M35 |
| 124 | *Salles | 15:30:08h | 5.48 | M40 | 116th M · 27th M40 |
| 125 | Montardon D Achille | 15:30:40h | 5.48 | W50 | 9th F · 2nd W50 |
| 126 | *Colomiers | 15:35:31h | 5.45 | M55 | 117th M · 3rd M55 |
| 127 | US Aigrefeuille Athlet... | 15:37:18h | 5.44 | M23 | 118th M · 38th M23 |
| 128 | Montardon D'Achille | 15:41:10h | 5.42 | M50 | 119th M · 3rd M50 |
| 129 | *Tournefeuille | 15:41:21h | 5.42 | M50 | 120th M · 4th M50 |
| 130 | S/L Sables Étudiant Cl... | 15:41:25h | 5.42 | M50 | 121st M · 5th M50 |
| 131 | *Toulouse | 15:43:01h | 5.41 | M23 | 122nd M · 39th M23 |
| 132 | *Gratentour | 15:43:13h | 5.41 | W23 | 10th F · 5th W23 |
| 132 | *Souilhe | 15:43:13h | 5.41 | — | 123rd M |
| 134 | Asptt Grand Périgueux ... | 15:44:15h | 5.40 | M35 | 124th M · 25th M35 |
| 135 | Ultramical86 | 15:45:01h | 5.40 | M40 | 125th M · 28th M40 |
| 136 | Team Bouconne | 15:45:27h | 5.39 | M23 | 126th M · 40th M23 |
| 137 | JCC | 15:47:47h | 5.38 | M23 | 127th M · 41st M23 |
| 138 | *Roaillan | 15:47:50h | 5.38 | M35 | 128th M · 26th M35 |
| 139 | les Lents du Poitou | 15:49:39h | 5.37 | M35 | 129th M · 27th M35 |
| 140 | *St Nexans | 15:49:57h | 5.37 | M55 | 130th M · 4th M55 |
| 141 | Team Bouconne | 15:52:30h | 5.35 | M50 | 131st M · 6th M50 |
| 142 | *Aucamville | 15:53:10h | 5.35 | M45 | 132nd M · 15th M45 |
| 143 | *Fichous Riumayou | 15:53:21h | 5.35 | M35 | 133rd M · 28th M35 |
| 144 | ÇA Morcenx | 15:53:24h | 5.35 | M45 | 134th M · 16th M45 |
| 145 | *Benejacq | 15:53:58h | 5.35 | — | 135th M |
| 146 | *Plaisir | 15:54:03h | 5.35 | M40 | 136th M · 29th M40 |
| 147 | *Luchon | 15:56:27h | 5.33 | M23 | 137th M · 42nd M23 |
| 148 | Bpbo31 | 15:56:54h | 5.33 | W45 | 11th F · 2nd W45 |
| 148 | Bpbo 31 | 15:56:54h | 5.33 | W40 | 11th F · 3rd W40 |
| 148 | Bpbo 31 | 15:56:54h | 5.33 | M50 | 138th M · 7th M50 |
- 101*Toulouse6th F · 2nd W40Time15:03:20hPace5.65Cat.W40
- 102Club Alpin Francais du...96th M · 21st M40Time15:05:10hPace5.63Cat.M40
- 103*Dignac97th M · 22nd M40Time15:06:25hPace5.63Cat.M40
- 104Running Ordizan Club98th MTime15:06:27hPace5.63
- 105Portet Athletic Club99th M · 23rd M40Time15:06:41hPace5.63Cat.M40
- 106Aizkorri Mendi Elkartea100th M · 2nd M50Time15:07:17hPace5.62Cat.M50
- 107*Madrid101st M · 35th M23Time15:07:36hPace5.62Cat.M23
- 108*Saint Loup Cammas102nd M · 24th M40Time15:08:03hPace5.62Cat.M40
- 109Aubiet103rd M · 36th M23Time15:08:04hPace5.62Cat.M23
- 110LA Britestole Trail104th M · 25th M40Time15:08:47hPace5.61Cat.M40
- 111*Pechbonnieu105th M · 11th M45Time15:09:43hPace5.61Cat.M45
- 112AB Trail106th M · 12th M45Time15:10:08hPace5.60Cat.M45
- 113*La Madeleine7th F · 1st W45Time15:10:29hPace5.60Cat.W45
- 114*Castres107th M · 22nd M35Time15:10:52hPace5.60Cat.M35
- 114*Artigueloutan107th M · 26th M40Time15:10:52hPace5.60Cat.M40
- 116Valeo109th M · 23rd M35Time15:11:26hPace5.60Cat.M35
- 117AR SUD LAC110th M · 3rd M60Time15:14:06hPace5.58Cat.M60
- 118Apéro Club Miossais111th M · 37th M23Time15:14:23hPace5.58Cat.M23
- 119*Saint André Lez Lille112th MTime15:14:43hPace5.58
- 120SAM8th F · 4th W23Time15:15:55hPace5.57Cat.W23
- 121les Galopins du Fezensac113th M · 13th M45Time15:22:34hPace5.53Cat.M45
- 122Tournedrune114th M · 14th M45Time15:29:19hPace5.49Cat.M45
- 123Ouirun la Rochelle - D...115th M · 24th M35Time15:29:20hPace5.49Cat.M35
- 124*Salles116th M · 27th M40Time15:30:08hPace5.48Cat.M40
- 125Montardon D Achille9th F · 2nd W50Time15:30:40hPace5.48Cat.W50
- 126*Colomiers117th M · 3rd M55Time15:35:31hPace5.45Cat.M55
- 127US Aigrefeuille Athlet...118th M · 38th M23Time15:37:18hPace5.44Cat.M23
- 128Montardon D'Achille119th M · 3rd M50Time15:41:10hPace5.42Cat.M50
- 129*Tournefeuille120th M · 4th M50Time15:41:21hPace5.42Cat.M50
- 130S/L Sables Étudiant Cl...121st M · 5th M50Time15:41:25hPace5.42Cat.M50
- 131*Toulouse122nd M · 39th M23Time15:43:01hPace5.41Cat.M23
- 132*Gratentour10th F · 5th W23Time15:43:13hPace5.41Cat.W23
- 132*Souilhe123rd MTime15:43:13hPace5.41
- 134Asptt Grand Périgueux ...124th M · 25th M35Time15:44:15hPace5.40Cat.M35
- 135Ultramical86125th M · 28th M40Time15:45:01hPace5.40Cat.M40
- 136Team Bouconne126th M · 40th M23Time15:45:27hPace5.39Cat.M23
- 137JCC127th M · 41st M23Time15:47:47hPace5.38Cat.M23
- 138*Roaillan128th M · 26th M35Time15:47:50hPace5.38Cat.M35
- 139les Lents du Poitou129th M · 27th M35Time15:49:39hPace5.37Cat.M35
- 140*St Nexans130th M · 4th M55Time15:49:57hPace5.37Cat.M55
- 141Team Bouconne131st M · 6th M50Time15:52:30hPace5.35Cat.M50
- 142*Aucamville132nd M · 15th M45Time15:53:10hPace5.35Cat.M45
- 143*Fichous Riumayou133rd M · 28th M35Time15:53:21hPace5.35Cat.M35
- 144ÇA Morcenx134th M · 16th M45Time15:53:24hPace5.35Cat.M45
- 145*Benejacq135th MTime15:53:58hPace5.35
- 146*Plaisir136th M · 29th M40Time15:54:03hPace5.35Cat.M40
- 147*Luchon137th M · 42nd M23Time15:56:27hPace5.33Cat.M23
- 148Bpbo3111th F · 2nd W45Time15:56:54hPace5.33Cat.W45
- 148Bpbo 3111th F · 3rd W40Time15:56:54hPace5.33Cat.W40
- 148Bpbo 31138th M · 7th M50Time15:56:54hPace5.33Cat.M50
Showing ranks 101–150 of 247